sensor_id;sensor_type;location;lat;lon;timestamp;temperature;humidity
108;DHT22;49;48.530;9.200;2023-04-15T00:07:06;12.40;1.00
108;DHT22;49;48.530;9.200;2023-04-15T01:15:45;11.70;1.00
108;DHT22;49;48.530;9.200;2023-04-15T01:45:55;12.00;1.00
108;DHT22;49;48.530;9.200;2023-04-15T02:11:01;11.30;1.00
108;DHT22;49;48.530;9.200;2023-04-15T02:31:06;13.10;1.00
108;DHT22;49;48.530;9.200;2023-04-15T03:21:26;10.00;1.00
108;DHT22;49;48.530;9.200;2023-04-15T03:26:23;9.80;1.00
108;DHT22;49;48.530;9.200;2023-04-15T03:58:58;9.70;1.00
108;DHT22;49;48.530;9.200;2023-04-15T04:14:07;10.10;1.00
108;DHT22;49;48.530;9.200;2023-04-15T04:21:42;9.70;1.00
108;DHT22;49;48.530;9.200;2023-04-15T04:31:38;9.70;1.00
108;DHT22;49;48.530;9.200;2023-04-15T04:41:40;9.90;1.00
108;DHT22;49;48.530;9.200;2023-04-15T04:59:13;10.20;1.00
108;DHT22;49;48.530;9.200;2023-04-15T05:01:40;10.00;1.00
108;DHT22;49;48.530;9.200;2023-04-15T05:06:42;9.80;1.00
108;DHT22;49;48.530;9.200;2023-04-15T05:09:09;9.60;1.00
108;DHT22;49;48.530;9.200;2023-04-15T05:29:20;11.20;1.00
108;DHT22;49;48.530;9.200;2023-04-15T05:31:47;11.80;1.00
108;DHT22;49;48.530;9.200;2023-04-15T08:14:14;21.30;1.00
108;DHT22;49;48.530;9.200;2023-04-15T11:12:13;19.40;1.00
108;DHT22;49;48.530;9.200;2023-04-15T11:42:42;19.30;1.00
108;DHT22;49;48.530;9.200;2023-04-15T12:08:07;17.40;1.00
108;DHT22;49;48.530;9.200;2023-04-15T12:23:20;17.10;1.00
108;DHT22;49;48.530;9.200;2023-04-15T12:28:23;17.30;1.00
108;DHT22;49;48.530;9.200;2023-04-15T12:51:26;17.90;1.00
108;DHT22;49;48.530;9.200;2023-04-15T13:09:15;17.10;1.00
108;DHT22;49;48.530;9.200;2023-04-15T15:14:03;16.10;1.00
108;DHT22;49;48.530;9.200;2023-04-15T15:34:47;14.00;1.00
108;DHT22;49;48.530;9.200;2023-04-15T15:42:14;13.00;1.00
108;DHT22;49;48.530;9.200;2023-04-15T15:47:17;12.90;1.00
108;DHT22;49;48.530;9.200;2023-04-15T15:49:57;12.70;1.00
108;DHT22;49;48.530;9.200;2023-04-15T15:52:25;12.90;1.00
108;DHT22;49;48.530;9.200;2023-04-15T15:57:28;13.00;1.00
108;DHT22;49;48.530;9.200;2023-04-15T17:05:52;13.20;1.00
108;DHT22;49;48.530;9.200;2023-04-15T17:10:52;12.60;1.00
108;DHT22;49;48.530;9.200;2023-04-15T17:13:25;12.70;1.00
108;DHT22;49;48.530;9.200;2023-04-15T17:18:29;12.60;1.00
108;DHT22;49;48.530;9.200;2023-04-15T18:38:09;14.10;1.00
108;DHT22;49;48.530;9.200;2023-04-15T18:40:36;14.00;1.00
108;DHT22;49;48.530;9.200;2023-04-15T18:43:04;13.50;1.00
108;DHT22;49;48.530;9.200;2023-04-15T18:45:31;13.50;1.00
108;DHT22;49;48.530;9.200;2023-04-15T18:47:58;13.50;1.00
108;DHT22;49;48.530;9.200;2023-04-15T18:50:25;13.70;1.00
108;DHT22;49;48.530;9.200;2023-04-15T18:52:52;13.50;1.00
108;DHT22;49;48.530;9.200;2023-04-15T18:55:22;13.30;1.00
108;DHT22;49;48.530;9.200;2023-04-15T18:57:50;13.60;1.00
108;DHT22;49;48.530;9.200;2023-04-15T19:00:17;13.90;1.00
108;DHT22;49;48.530;9.200;2023-04-15T19:02:45;13.90;1.00
108;DHT22;49;48.530;9.200;2023-04-15T19:05:12;13.70;1.00
108;DHT22;49;48.530;9.200;2023-04-15T19:07:39;13.50;1.00
108;DHT22;49;48.530;9.200;2023-04-15T19:10:07;13.60;1.00
108;DHT22;49;48.530;9.200;2023-04-15T19:12:35;13.40;1.00
108;DHT22;49;48.530;9.200;2023-04-15T19:15:02;13.40;1.00
108;DHT22;49;48.530;9.200;2023-04-15T19:17:30;13.70;1.00
108;DHT22;49;48.530;9.200;2023-04-15T19:19:57;13.90;1.00
108;DHT22;49;48.530;9.200;2023-04-15T19:22:27;13.90;1.00
108;DHT22;49;48.530;9.200;2023-04-15T19:24:55;14.00;1.00
108;DHT22;49;48.530;9.200;2023-04-15T19:27:22;14.20;1.00
108;DHT22;49;48.530;9.200;2023-04-15T19:29:51;14.20;1.00
108;DHT22;49;48.530;9.200;2023-04-15T19:32:18;14.20;1.00
108;DHT22;49;48.530;9.200;2023-04-15T19:34:46;14.40;1.00
108;DHT22;49;48.530;9.200;2023-04-15T19:37:14;14.50;1.00
108;DHT22;49;48.530;9.200;2023-04-15T19:39:41;14.40;1.00
108;DHT22;49;48.530;9.200;2023-04-15T19:42:08;14.50;1.00
108;DHT22;49;48.530;9.200;2023-04-15T19:44:35;14.50;1.00
108;DHT22;49;48.530;9.200;2023-04-15T19:47:09;14.30;1.00
108;DHT22;49;48.530;9.200;2023-04-15T19:49:36;14.20;1.00
108;DHT22;49;48.530;9.200;2023-04-15T19:52:04;14.40;1.00
108;DHT22;49;48.530;9.200;2023-04-15T19:54:32;14.20;1.00
108;DHT22;49;48.530;9.200;2023-04-15T19:57:00;14.30;1.00
108;DHT22;49;48.530;9.200;2023-04-15T19:59:29;14.40;1.00
108;DHT22;49;48.530;9.200;2023-04-15T20:01:56;14.20;1.00
108;DHT22;49;48.530;9.200;2023-04-15T20:04:24;14.10;1.00
108;DHT22;49;48.530;9.200;2023-04-15T20:06:51;14.20;1.00
108;DHT22;49;48.530;9.200;2023-04-15T20:09:19;14.20;1.00
108;DHT22;49;48.530;9.200;2023-04-15T20:11:46;13.90;1.00
108;DHT22;49;48.530;9.200;2023-04-15T20:14:13;14.00;1.00
108;DHT22;49;48.530;9.200;2023-04-15T20:16:40;13.80;1.00
108;DHT22;49;48.530;9.200;2023-04-15T20:19:07;14.10;1.00
108;DHT22;49;48.530;9.200;2023-04-15T20:21:38;14.20;1.00
108;DHT22;49;48.530;9.200;2023-04-15T20:24:05;14.30;1.00
108;DHT22;49;48.530;9.200;2023-04-15T20:26:32;14.40;1.00
108;DHT22;49;48.530;9.200;2023-04-15T20:28:59;14.40;1.00
108;DHT22;49;48.530;9.200;2023-04-15T20:31:26;14.30;1.00
108;DHT22;49;48.530;9.200;2023-04-15T20:33:53;14.20;1.00
108;DHT22;49;48.530;9.200;2023-04-15T20:36:20;14.10;1.00
108;DHT22;49;48.530;9.200;2023-04-15T20:38:48;13.80;1.00
108;DHT22;49;48.530;9.200;2023-04-15T20:41:15;13.80;1.00
108;DHT22;49;48.530;9.200;2023-04-15T20:43:42;13.90;1.00
108;DHT22;49;48.530;9.200;2023-04-15T20:46:09;13.90;1.00
108;DHT22;49;48.530;9.200;2023-04-15T20:48:36;13.90;1.00
108;DHT22;49;48.530;9.200;2023-04-15T20:51:03;14.10;1.00
108;DHT22;49;48.530;9.200;2023-04-15T20:53:30;14.00;1.00
108;DHT22;49;48.530;9.200;2023-04-15T20:55:59;13.90;1.00
108;DHT22;49;48.530;9.200;2023-04-15T20:58:26;13.80;1.00
108;DHT22;49;48.530;9.200;2023-04-15T21:00:55;13.70;1.00
108;DHT22;49;48.530;9.200;2023-04-15T21:03:23;13.70;1.00
108;DHT22;49;48.530;9.200;2023-04-15T21:05:50;13.60;1.00
108;DHT22;49;48.530;9.200;2023-04-15T21:08:17;13.50;1.00
108;DHT22;49;48.530;9.200;2023-04-15T21:10:43;13.40;1.00
108;DHT22;49;48.530;9.200;2023-04-15T21:13:12;13.20;1.00
108;DHT22;49;48.530;9.200;2023-04-15T21:15:42;13.40;1.00
108;DHT22;49;48.530;9.200;2023-04-15T21:18:10;13.50;1.00
108;DHT22;49;48.530;9.200;2023-04-15T21:20:37;13.80;1.00
108;DHT22;49;48.530;9.200;2023-04-15T21:23:04;13.70;1.00
108;DHT22;49;48.530;9.200;2023-04-15T21:25:31;13.80;1.00
108;DHT22;49;48.530;9.200;2023-04-15T21:27:57;13.70;1.00
108;DHT22;49;48.530;9.200;2023-04-15T21:30:26;13.80;1.00
108;DHT22;49;48.530;9.200;2023-04-15T21:32:53;13.90;1.00
108;DHT22;49;48.530;9.200;2023-04-15T21:35:20;13.90;1.00
108;DHT22;49;48.530;9.200;2023-04-15T21:37:47;13.90;1.00
108;DHT22;49;48.530;9.200;2023-04-15T21:40:14;13.90;1.00
108;DHT22;49;48.530;9.200;2023-04-15T21:42:43;14.10;1.00
108;DHT22;49;48.530;9.200;2023-04-15T21:45:10;13.80;1.00
108;DHT22;49;48.530;9.200;2023-04-15T21:47:39;13.80;1.00
108;DHT22;49;48.530;9.200;2023-04-15T21:50:06;13.90;1.00
108;DHT22;49;48.530;9.200;2023-04-15T21:52:33;13.80;1.00
108;DHT22;49;48.530;9.200;2023-04-15T21:55:00;13.70;1.00
108;DHT22;49;48.530;9.200;2023-04-15T21:57:27;13.70;1.00
108;DHT22;49;48.530;9.200;2023-04-15T21:59:55;13.80;1.00
108;DHT22;49;48.530;9.200;2023-04-15T22:02:22;13.80;1.00
108;DHT22;49;48.530;9.200;2023-04-15T22:04:51;13.80;1.00
108;DHT22;49;48.530;9.200;2023-04-15T22:07:18;13.60;1.00
108;DHT22;49;48.530;9.200;2023-04-15T22:09:45;13.70;1.00
108;DHT22;49;48.530;9.200;2023-04-15T22:12:12;13.80;1.00
108;DHT22;49;48.530;9.200;2023-04-15T22:14:39;13.80;1.00
108;DHT22;49;48.530;9.200;2023-04-15T22:17:06;13.70;1.00
108;DHT22;49;48.530;9.200;2023-04-15T22:19:33;13.90;1.00
108;DHT22;49;48.530;9.200;2023-04-15T22:22:01;13.90;1.00
108;DHT22;49;48.530;9.200;2023-04-15T22:24:28;13.90;1.00
108;DHT22;49;48.530;9.200;2023-04-15T22:26:56;13.80;1.00
108;DHT22;49;48.530;9.200;2023-04-15T22:29:23;13.60;1.00
108;DHT22;49;48.530;9.200;2023-04-15T22:31:50;13.60;1.00
108;DHT22;49;48.530;9.200;2023-04-15T22:36:50;13.90;1.00
108;DHT22;49;48.530;9.200;2023-04-15T22:39:19;13.80;1.00
108;DHT22;49;48.530;9.200;2023-04-15T22:41:46;13.80;1.00
108;DHT22;49;48.530;9.200;2023-04-15T22:44:13;13.80;1.00
108;DHT22;49;48.530;9.200;2023-04-15T22:46:40;13.80;1.00
108;DHT22;49;48.530;9.200;2023-04-15T22:49:08;13.70;1.00
108;DHT22;49;48.530;9.200;2023-04-15T22:51:36;13.60;1.00
108;DHT22;49;48.530;9.200;2023-04-15T22:54:03;13.80;1.00
108;DHT22;49;48.530;9.200;2023-04-15T22:56:31;13.70;1.00
108;DHT22;49;48.530;9.200;2023-04-15T22:58:58;13.70;1.00
108;DHT22;49;48.530;9.200;2023-04-15T23:01:25;13.70;1.00
108;DHT22;49;48.530;9.200;2023-04-15T23:03:52;13.70;1.00
108;DHT22;49;48.530;9.200;2023-04-15T23:06:19;13.70;1.00
108;DHT22;49;48.530;9.200;2023-04-15T23:08:46;13.60;1.00
108;DHT22;49;48.530;9.200;2023-04-15T23:11:14;13.70;1.00
108;DHT22;49;48.530;9.200;2023-04-15T23:13:44;13.50;1.00
108;DHT22;49;48.530;9.200;2023-04-15T23:16:11;13.40;1.00
108;DHT22;49;48.530;9.200;2023-04-15T23:18:38;13.50;1.00
108;DHT22;49;48.530;9.200;2023-04-15T23:21:05;13.50;1.00
108;DHT22;49;48.530;9.200;2023-04-15T23:23:32;13.50;1.00
108;DHT22;49;48.530;9.200;2023-04-15T23:25:59;13.50;1.00
108;DHT22;49;48.530;9.200;2023-04-15T23:28:28;13.50;1.00
108;DHT22;49;48.530;9.200;2023-04-15T23:30:57;13.50;1.00
108;DHT22;49;48.530;9.200;2023-04-15T23:33:24;13.50;1.00
108;DHT22;49;48.530;9.200;2023-04-15T23:35:51;13.50;1.00
108;DHT22;49;48.530;9.200;2023-04-15T23:38:18;13.40;1.00
108;DHT22;49;48.530;9.200;2023-04-15T23:40:45;13.40;1.00
108;DHT22;49;48.530;9.200;2023-04-15T23:43:12;13.40;1.00
108;DHT22;49;48.530;9.200;2023-04-15T23:45:39;13.40;1.00
108;DHT22;49;48.530;9.200;2023-04-15T23:50:37;13.50;1.00
108;DHT22;49;48.530;9.200;2023-04-15T23:53:04;13.50;1.00
108;DHT22;49;48.530;9.200;2023-04-15T23:55:31;13.70;1.00
108;DHT22;49;48.530;9.200;2023-04-15T23:57:58;13.70;1.00
